createdAt,value
2017-11-18T00:00:59.364Z,1018.70
2017-11-18T00:01:59.789Z,1018.73
2017-11-18T00:03:00.206Z,1018.73
2017-11-18T00:04:00.629Z,1018.73
2017-11-18T00:05:01.062Z,1018.72
2017-11-18T00:06:01.473Z,1018.71
2017-11-18T00:07:01.892Z,1018.75
2017-11-18T00:08:02.314Z,1018.74
2017-11-18T00:09:02.736Z,1018.70
2017-11-18T00:10:03.155Z,1018.71
2017-11-18T00:11:03.581Z,1018.69
2017-11-18T00:12:04.006Z,1018.70
2017-11-18T00:13:04.425Z,1018.70
2017-11-18T00:14:04.848Z,1018.67
2017-11-18T00:15:05.266Z,1018.65
2017-11-18T00:16:05.688Z,1018.67
2017-11-18T00:17:06.112Z,1018.66
2017-11-18T00:18:06.530Z,1018.61
2017-11-18T00:19:06.951Z,1018.59
2017-11-18T00:20:07.371Z,1018.55
2017-11-18T00:21:07.798Z,1018.52
2017-11-18T00:22:08.214Z,1018.48
2017-11-18T00:23:08.637Z,1018.48
2017-11-18T00:24:09.068Z,1018.47
2017-11-18T00:25:09.482Z,1018.45
2017-11-18T00:26:09.904Z,1018.44
2017-11-18T00:27:10.320Z,1018.44
2017-11-18T00:28:10.750Z,1018.43
2017-11-18T00:29:11.166Z,1018.38
2017-11-18T00:30:11.585Z,1018.40
2017-11-18T00:31:12.014Z,1018.40
2017-11-18T00:32:12.430Z,1018.40
2017-11-18T00:33:12.851Z,1018.38
2017-11-18T00:34:13.276Z,1018.39
2017-11-18T00:35:13.694Z,1018.39
2017-11-18T00:36:14.116Z,1018.43
2017-11-18T00:37:14.539Z,1018.45
2017-11-18T00:38:14.959Z,1018.40
2017-11-18T00:39:15.381Z,1018.42
2017-11-18T00:40:15.801Z,1018.41
2017-11-18T00:41:16.222Z,1018.43
2017-11-18T00:42:16.645Z,1018.40
2017-11-18T00:43:17.065Z,1018.42
2017-11-18T00:44:17.489Z,1018.40
2017-11-18T00:45:17.910Z,1018.41
2017-11-18T00:46:18.330Z,1018.40
2017-11-18T00:47:18.761Z,1018.45
2017-11-18T00:48:19.171Z,1018.45
2017-11-18T00:49:19.594Z,1018.44
2017-11-18T00:50:20.029Z,1018.41
2017-11-18T00:51:20.442Z,1018.43
2017-11-18T00:52:20.869Z,1018.37
2017-11-18T00:53:21.280Z,1018.39
2017-11-18T00:54:21.704Z,1018.39
2017-11-18T00:55:22.124Z,1018.35
2017-11-18T00:56:22.554Z,1018.33
2017-11-18T00:57:22.968Z,1018.31
2017-11-18T00:58:23.398Z,1018.29
2017-11-18T00:59:23.814Z,1018.27
2017-11-18T01:00:24.233Z,1018.28
2017-11-18T01:01:24.655Z,1018.26
2017-11-18T01:02:25.077Z,1018.28
2017-11-18T01:03:25.498Z,1018.33
2017-11-18T01:04:25.925Z,1018.28
2017-11-18T01:05:26.343Z,1018.27
2017-11-18T01:06:26.768Z,1018.29
2017-11-18T01:07:27.191Z,1018.25
2017-11-18T01:08:27.608Z,1018.24
2017-11-18T01:09:28.037Z,1018.22
2017-11-18T01:10:28.455Z,1018.22
2017-11-18T01:11:28.875Z,1018.22
2017-11-18T01:12:29.295Z,1018.22
2017-11-18T01:13:29.758Z,1018.20
2017-11-18T01:14:30.142Z,1018.21
2017-11-18T01:15:30.566Z,1018.20
2017-11-18T01:16:30.986Z,1018.17
2017-11-18T01:17:31.405Z,1018.20
2017-11-18T01:18:31.828Z,1018.17
2017-11-18T01:19:32.248Z,1018.21
2017-11-18T01:20:32.672Z,1018.19
2017-11-18T01:21:33.099Z,1018.14
2017-11-18T01:22:33.524Z,1018.16
2017-11-18T01:23:33.935Z,1018.14
2017-11-18T01:24:34.357Z,1018.14
2017-11-18T01:25:34.783Z,1018.12
2017-11-18T01:26:35.205Z,1018.10
2017-11-18T01:27:35.622Z,1018.07
2017-11-18T01:28:36.050Z,1018.05
2017-11-18T01:29:36.465Z,1018.04
2017-11-18T01:30:36.888Z,1018.04
2017-11-18T01:31:37.312Z,1018.02
2017-11-18T01:32:37.735Z,1017.97
2017-11-18T01:33:38.154Z,1018.00
2017-11-18T01:34:38.579Z,1017.99
2017-11-18T01:35:38.997Z,1017.96
2017-11-18T01:36:39.421Z,1017.94
2017-11-18T01:37:39.845Z,1017.98
2017-11-18T01:38:40.270Z,1017.94
2017-11-18T01:39:40.691Z,1017.91
2017-11-18T01:40:41.113Z,1017.91
2017-11-18T01:41:41.529Z,1017.87
2017-11-18T01:42:41.950Z,1017.88
2017-11-18T01:43:42.370Z,1017.89
2017-11-18T01:44:42.792Z,1017.88
2017-11-18T01:45:43.217Z,1017.88
2017-11-18T01:46:43.644Z,1017.86
2017-11-18T01:47:44.059Z,1017.88
2017-11-18T01:48:44.480Z,1017.91
2017-11-18T01:49:44.900Z,1017.89
2017-11-18T01:50:45.324Z,1017.92
2017-11-18T01:51:45.753Z,1017.90
2017-11-18T01:52:46.177Z,1017.91
2017-11-18T01:53:46.590Z,1017.90
2017-11-18T01:54:47.010Z,1017.87
2017-11-18T01:55:47.431Z,1017.80
2017-11-18T01:56:47.860Z,1017.82
2017-11-18T01:57:48.274Z,1017.80
2017-11-18T01:58:48.704Z,1017.77
2017-11-18T01:59:49.123Z,1017.78
2017-11-18T02:00:49.539Z,1017.72
2017-11-18T02:01:49.963Z,1017.74
2017-11-18T02:02:50.383Z,1017.67
2017-11-18T02:03:50.801Z,1017.69
2017-11-18T02:04:51.226Z,1017.61
2017-11-18T02:05:51.651Z,1017.63
2017-11-18T02:06:52.073Z,1017.57
2017-11-18T02:07:52.503Z,1017.57
2017-11-18T02:08:52.913Z,1017.54
2017-11-18T02:09:53.335Z,1017.54
2017-11-18T02:10:53.758Z,1017.51
2017-11-18T02:11:54.176Z,1017.47
2017-11-18T02:12:54.614Z,1017.47
2017-11-18T02:13:55.021Z,1017.47
2017-11-18T02:14:55.439Z,1017.40
2017-11-18T02:15:55.862Z,1017.42
2017-11-18T02:16:56.283Z,1017.35
2017-11-18T02:17:56.704Z,1017.36
2017-11-18T02:18:57.124Z,1017.37
2017-11-18T02:19:57.547Z,1017.35
2017-11-18T02:20:57.969Z,1017.31
2017-11-18T02:21:58.390Z,1017.26
2017-11-18T02:22:58.809Z,1017.22
2017-11-18T02:23:59.231Z,1017.19
2017-11-18T02:24:59.652Z,1017.20
2017-11-18T02:26:00.083Z,1017.21
2017-11-18T02:27:00.495Z,1017.17
2017-11-18T02:28:00.917Z,1017.17
2017-11-18T02:29:01.339Z,1017.14
2017-11-18T02:30:01.761Z,1017.14
2017-11-18T02:31:02.188Z,1017.14
2017-11-18T02:32:02.601Z,1017.14
2017-11-18T02:33:03.023Z,1017.10
2017-11-18T02:34:03.448Z,1017.11
2017-11-18T02:35:03.866Z,1017.10
2017-11-18T02:36:04.286Z,1017.06
2017-11-18T02:37:04.709Z,1017.03
2017-11-18T02:38:05.131Z,1016.99
2017-11-18T02:39:05.559Z,1017.01
2017-11-18T02:40:05.980Z,1017.01
2017-11-18T02:41:06.398Z,1017.00
2017-11-18T02:42:06.818Z,1016.95
2017-11-18T02:43:07.240Z,1016.91
2017-11-18T02:44:07.657Z,1016.83
2017-11-18T02:45:08.092Z,1016.86
2017-11-18T02:46:08.505Z,1016.83
2017-11-18T02:47:08.928Z,1016.81
2017-11-18T02:48:09.345Z,1016.77
2017-11-18T02:49:09.765Z,1016.75
2017-11-18T02:50:10.187Z,1016.72
2017-11-18T02:51:10.616Z,1016.71
2017-11-18T02:52:11.029Z,1016.70
2017-11-18T02:53:11.453Z,1016.71
2017-11-18T02:54:11.877Z,1016.66
2017-11-18T02:55:12.297Z,1016.66
2017-11-18T02:56:12.716Z,1016.69
2017-11-18T02:57:13.138Z,1016.65
2017-11-18T02:58:13.565Z,1016.61
2017-11-18T02:59:13.979Z,1016.54
2017-11-18T03:00:14.403Z,1016.56
2017-11-18T03:01:14.829Z,1016.54
2017-11-18T03:02:15.246Z,1016.47
2017-11-18T03:03:15.696Z,1016.51
2017-11-18T03:04:16.094Z,1016.44
2017-11-18T03:05:16.519Z,1016.46
2017-11-18T03:06:16.933Z,1016.43
2017-11-18T03:07:17.360Z,1016.42
2017-11-18T03:08:17.783Z,1016.40
2017-11-18T03:09:18.193Z,1016.40
2017-11-18T03:10:18.630Z,1016.41
2017-11-18T03:11:19.044Z,1016.38
2017-11-18T03:12:19.459Z,1016.38
2017-11-18T03:13:19.881Z,1016.36
2017-11-18T03:14:20.299Z,1016.37
2017-11-18T03:15:20.720Z,1016.34
2017-11-18T03:16:21.140Z,1016.40
2017-11-18T03:17:21.564Z,1016.38
2017-11-18T03:18:21.983Z,1016.35
2017-11-18T03:19:22.410Z,1016.38
2017-11-18T03:20:22.833Z,1016.35
2017-11-18T03:21:23.247Z,1016.32
2017-11-18T03:22:23.670Z,1016.33
2017-11-18T03:23:24.092Z,1016.33
2017-11-18T03:24:24.511Z,1016.33
2017-11-18T03:25:24.936Z,1016.26
2017-11-18T03:26:25.359Z,1016.34
2017-11-18T03:27:25.777Z,1016.34
2017-11-18T03:28:26.195Z,1016.31
2017-11-18T03:29:26.623Z,1016.34
2017-11-18T03:30:27.045Z,1016.32
2017-11-18T03:31:27.470Z,1016.32
2017-11-18T03:32:27.882Z,1016.29
2017-11-18T03:33:28.301Z,1016.27
2017-11-18T03:34:28.724Z,1016.26
2017-11-18T03:35:29.153Z,1016.25
2017-11-18T03:36:29.567Z,1016.18
2017-11-18T03:37:29.994Z,1016.21
2017-11-18T03:38:30.410Z,1016.22
2017-11-18T03:39:30.836Z,1016.23
2017-11-18T03:40:31.255Z,1016.20
2017-11-18T03:41:31.671Z,1016.18
2017-11-18T03:42:32.097Z,1016.20
2017-11-18T03:43:32.518Z,1016.18
2017-11-18T03:44:32.981Z,1016.20
2017-11-18T03:45:33.360Z,1016.17
2017-11-18T03:46:33.784Z,1016.12
2017-11-18T03:47:34.202Z,1016.14
2017-11-18T03:48:34.625Z,1016.14
2017-11-18T03:49:35.042Z,1016.11
2017-11-18T03:50:35.462Z,1016.15
2017-11-18T03:51:35.887Z,1016.12
2017-11-18T03:52:36.306Z,1016.09
2017-11-18T03:53:36.733Z,1016.05
2017-11-18T03:54:37.168Z,1016.07
2017-11-18T03:55:37.572Z,1015.99
2017-11-18T03:56:37.991Z,1016.04
2017-11-18T03:57:38.417Z,1016.01
2017-11-18T03:58:38.855Z,1016.00
2017-11-18T03:59:39.263Z,1015.95
2017-11-18T04:00:39.680Z,1015.97
2017-11-18T04:01:40.101Z,1015.95
2017-11-18T04:02:40.524Z,1015.91
2017-11-18T04:03:40.941Z,1015.90
2017-11-18T04:04:41.370Z,1015.87
2017-11-18T04:05:41.785Z,1015.85
2017-11-18T04:06:42.206Z,1015.85
2017-11-18T04:07:42.638Z,1015.85
2017-11-18T04:08:43.049Z,1015.84
2017-11-18T04:09:43.473Z,1015.81
2017-11-18T04:10:43.909Z,1015.79
2017-11-18T04:11:44.324Z,1015.79
2017-11-18T04:12:44.737Z,1015.77
2017-11-18T04:13:45.157Z,1015.81
2017-11-18T04:14:45.579Z,1015.80
2017-11-18T04:15:46.003Z,1015.77
2017-11-18T04:16:46.422Z,1015.76
2017-11-18T04:17:46.847Z,1015.76
2017-11-18T04:18:47.269Z,1015.76
2017-11-18T04:19:47.691Z,1015.74
2017-11-18T04:20:48.110Z,1015.72
2017-11-18T04:21:48.537Z,1015.69
2017-11-18T04:22:48.962Z,1015.68
2017-11-18T04:23:49.381Z,1015.67
2017-11-18T04:24:49.800Z,1015.65
2017-11-18T04:25:50.227Z,1015.61
2017-11-18T04:26:50.654Z,1015.62
2017-11-18T04:27:51.065Z,1015.59
2017-11-18T04:28:51.487Z,1015.57
2017-11-18T04:29:51.912Z,1015.56
2017-11-18T04:30:52.335Z,1015.59
2017-11-18T04:31:52.754Z,1015.58
2017-11-18T04:32:53.173Z,1015.53
2017-11-18T04:33:53.598Z,1015.53
2017-11-18T04:34:54.017Z,1015.50
2017-11-18T04:35:54.446Z,1015.49
2017-11-18T04:36:54.868Z,1015.47
2017-11-18T04:37:55.287Z,1015.43
2017-11-18T04:38:55.709Z,1015.45
2017-11-18T04:39:56.128Z,1015.40
2017-11-18T04:40:56.553Z,1015.39
2017-11-18T04:41:56.975Z,1015.42
2017-11-18T04:42:57.393Z,1015.41
2017-11-18T04:43:57.818Z,1015.35
2017-11-18T04:44:58.239Z,1015.34
2017-11-18T04:45:58.658Z,1015.36
2017-11-18T04:46:59.082Z,1015.33
2017-11-18T04:47:59.507Z,1015.29
2017-11-18T04:48:59.931Z,1015.27
2017-11-18T04:50:00.351Z,1015.23
2017-11-18T04:51:00.770Z,1015.26
2017-11-18T04:52:01.191Z,1015.22
2017-11-18T04:53:01.615Z,1015.18
2017-11-18T04:54:02.034Z,1015.20
2017-11-18T04:55:02.461Z,1015.19
2017-11-18T04:56:02.882Z,1015.17
2017-11-18T04:57:03.303Z,1015.16
2017-11-18T04:58:03.741Z,1015.10
2017-11-18T04:59:04.144Z,1015.12
2017-11-18T05:00:04.569Z,1015.13
2017-11-18T05:01:05.017Z,1015.13
2017-11-18T05:02:05.412Z,1015.13
2017-11-18T05:03:05.832Z,1015.04
2017-11-18T05:04:06.258Z,1015.07
2017-11-18T05:05:06.677Z,1015.05
2017-11-18T05:06:07.103Z,1015.06
2017-11-18T05:07:07.521Z,1015.05
2017-11-18T05:08:07.942Z,1015.03
2017-11-18T05:09:08.365Z,1015.00
2017-11-18T05:10:08.787Z,1015.01
2017-11-18T05:11:09.212Z,1014.99
2017-11-18T05:12:09.634Z,1014.99
2017-11-18T05:13:10.052Z,1014.97
2017-11-18T05:14:10.476Z,1014.92
2017-11-18T05:15:10.897Z,1014.93
2017-11-18T05:16:11.322Z,1014.93
2017-11-18T05:17:11.743Z,1014.88
2017-11-18T05:18:12.171Z,1014.93
2017-11-18T05:19:12.593Z,1014.92
2017-11-18T05:20:13.008Z,1014.88
2017-11-18T05:21:13.428Z,1014.91
2017-11-18T05:22:13.851Z,1014.82
2017-11-18T05:23:14.276Z,1014.83
2017-11-18T05:24:14.696Z,1014.81
2017-11-18T05:25:15.124Z,1014.86
2017-11-18T05:26:15.542Z,1014.81
2017-11-18T05:27:15.966Z,1014.78
2017-11-18T05:28:16.386Z,1014.77
2017-11-18T05:29:16.804Z,1014.80
2017-11-18T05:30:17.230Z,1014.75
2017-11-18T05:31:17.652Z,1014.71
2017-11-18T05:32:18.078Z,1014.70
2017-11-18T05:33:18.494Z,1014.68
2017-11-18T05:34:18.914Z,1014.68
2017-11-18T05:35:19.340Z,1014.67
2017-11-18T05:36:19.767Z,1014.68
2017-11-18T05:37:20.184Z,1014.66
2017-11-18T05:38:20.603Z,1014.69
2017-11-18T05:39:21.029Z,1014.69
2017-11-18T05:40:21.452Z,1014.65
2017-11-18T05:41:21.879Z,1014.70
2017-11-18T05:42:22.296Z,1014.61
2017-11-18T05:43:22.716Z,1014.68
2017-11-18T05:44:23.147Z,1014.68
2017-11-18T05:45:23.557Z,1014.68
2017-11-18T05:46:23.984Z,1014.65
2017-11-18T05:47:24.403Z,1014.61
2017-11-18T05:48:24.832Z,1014.59
2017-11-18T05:49:25.248Z,1014.55
2017-11-18T05:50:25.672Z,1014.58
2017-11-18T05:51:26.090Z,1014.59
2017-11-18T05:52:26.512Z,1014.53
2017-11-18T05:53:26.939Z,1014.55
2017-11-18T05:54:27.365Z,1014.52
2017-11-18T05:55:27.780Z,1014.51
2017-11-18T05:56:28.208Z,1014.47
2017-11-18T05:57:28.643Z,1014.41
2017-11-18T05:58:29.046Z,1014.43
2017-11-18T05:59:29.468Z,1014.46
2017-11-18T06:00:29.909Z,1014.41
2017-11-18T06:01:30.356Z,1014.41
2017-11-18T06:02:30.737Z,1014.38
2017-11-18T06:03:31.163Z,1014.42
2017-11-18T06:04:31.579Z,1014.43
2017-11-18T06:05:32.012Z,1014.40
2017-11-18T06:06:32.424Z,1014.40
2017-11-18T06:07:32.844Z,1014.40
2017-11-18T06:08:33.266Z,1014.34
2017-11-18T06:09:33.686Z,1014.37
2017-11-18T06:10:34.110Z,1014.34
2017-11-18T06:11:34.533Z,1014.32
2017-11-18T06:12:34.959Z,1014.30
2017-11-18T06:13:35.375Z,1014.29
2017-11-18T06:14:35.794Z,1014.21
2017-11-18T06:15:36.219Z,1014.25
2017-11-18T06:16:36.641Z,1014.23
2017-11-18T06:17:37.066Z,1014.18
2017-11-18T06:18:37.485Z,1014.17
2017-11-18T06:19:37.909Z,1014.18
2017-11-18T06:20:38.332Z,1014.16
2017-11-18T06:21:38.751Z,1014.14
2017-11-18T06:22:39.175Z,1014.10
2017-11-18T06:23:39.650Z,1014.11
2017-11-18T06:24:40.027Z,1014.12
2017-11-18T06:25:40.441Z,1014.11
2017-11-18T06:26:40.861Z,1014.13
2017-11-18T06:27:41.284Z,1014.11
2017-11-18T06:28:41.708Z,1014.09
2017-11-18T06:29:42.137Z,1014.09
2017-11-18T06:30:42.552Z,1014.06
2017-11-18T06:31:42.975Z,1014.05
2017-11-18T06:32:43.393Z,1014.06
2017-11-18T06:33:43.818Z,1014.05
2017-11-18T06:34:44.240Z,1014.05
2017-11-18T06:35:44.662Z,1014.12
2017-11-18T06:36:45.087Z,1013.99
2017-11-18T06:37:45.508Z,1014.06
2017-11-18T06:38:45.929Z,1014.03
2017-11-18T06:39:46.351Z,1014.03
2017-11-18T06:40:46.775Z,1014.06
2017-11-18T06:41:47.195Z,1014.08
2017-11-18T06:42:47.624Z,1014.05
2017-11-18T06:44:48.453Z,1014.05
2017-11-18T06:45:48.879Z,1014.03
2017-11-18T06:46:49.305Z,1014.02
2017-11-18T06:47:49.733Z,1014.03
2017-11-18T06:48:50.162Z,1013.99
2017-11-18T06:49:50.570Z,1013.98
2017-11-18T06:50:50.995Z,1013.98
2017-11-18T06:51:51.413Z,1013.97
2017-11-18T06:52:51.835Z,1014.01
2017-11-18T06:53:52.257Z,1013.99
2017-11-18T06:54:52.682Z,1013.96
2017-11-18T06:55:53.101Z,1014.00
2017-11-18T06:56:53.522Z,1013.97
2017-11-18T06:57:53.947Z,1014.03
2017-11-18T06:58:54.372Z,1014.00
2017-11-18T06:59:54.792Z,1013.94
2017-11-18T07:00:55.217Z,1013.99
2017-11-18T07:01:55.631Z,1013.93
2017-11-18T07:02:56.052Z,1013.95
2017-11-18T07:03:56.480Z,1013.93
2017-11-18T07:04:56.898Z,1013.93
2017-11-18T07:05:57.324Z,1013.96
2017-11-18T07:06:57.751Z,1013.92
2017-11-18T07:07:58.167Z,1013.93
2017-11-18T07:08:58.586Z,1013.89
2017-11-18T07:09:59.006Z,1013.87
2017-11-18T07:10:59.429Z,1013.87
2017-11-18T07:11:59.851Z,1013.84
2017-11-18T07:13:00.273Z,1013.84
2017-11-18T07:14:00.691Z,1013.87
2017-11-18T07:15:01.115Z,1013.77
2017-11-18T07:16:01.536Z,1013.83
2017-11-18T07:17:01.958Z,1013.77
2017-11-18T07:18:02.382Z,1013.80
2017-11-18T07:19:02.812Z,1013.84
2017-11-18T07:20:03.222Z,1013.78
2017-11-18T07:21:03.644Z,1013.78
2017-11-18T07:22:04.064Z,1013.77
2017-11-18T07:23:04.488Z,1013.78
2017-11-18T07:24:04.910Z,1013.75
2017-11-18T07:25:05.334Z,1013.72
2017-11-18T07:26:05.928Z,1013.76
2017-11-18T07:27:06.345Z,1013.72
2017-11-18T07:28:06.590Z,1013.75
2017-11-18T07:29:07.024Z,1013.71
2017-11-18T07:30:07.439Z,1013.67
2017-11-18T07:31:07.861Z,1013.66
2017-11-18T07:32:08.281Z,1013.68
2017-11-18T07:33:08.704Z,1013.67
2017-11-18T07:34:09.122Z,1013.65
2017-11-18T07:35:09.545Z,1013.65
2017-11-18T07:36:09.967Z,1013.67
2017-11-18T07:37:10.390Z,1013.64
2017-11-18T07:38:10.809Z,1013.64
2017-11-18T07:39:11.233Z,1013.63
2017-11-18T07:40:11.654Z,1013.54
2017-11-18T07:41:12.077Z,1013.55
2017-11-18T07:42:12.496Z,1013.60
2017-11-18T07:43:12.921Z,1013.51
2017-11-18T07:44:13.343Z,1013.54
2017-11-18T07:45:13.763Z,1013.51
2017-11-18T07:46:14.188Z,1013.48
2017-11-18T07:47:14.681Z,1013.50
2017-11-18T07:48:15.065Z,1013.56
2017-11-18T07:49:15.471Z,1013.48
2017-11-18T07:50:15.896Z,1013.47
2017-11-18T07:51:16.329Z,1013.47
2017-11-18T07:52:16.736Z,1013.45
2017-11-18T07:53:17.159Z,1013.45
2017-11-18T07:54:17.578Z,1013.39
2017-11-18T07:55:18.006Z,1013.39
2017-11-18T07:56:18.422Z,1013.31
2017-11-18T07:57:18.926Z,1013.30
2017-11-18T07:58:19.276Z,1013.26
2017-11-18T07:59:19.688Z,1013.32
2017-11-18T08:00:20.110Z,1013.27
2017-11-18T08:01:20.532Z,1013.33
2017-11-18T08:02:20.942Z,1013.25
2017-11-18T08:03:21.417Z,1013.26
2017-11-18T08:04:21.856Z,1013.21
2017-11-18T08:05:22.223Z,1013.17
2017-11-18T08:06:22.647Z,1013.18
2017-11-18T08:07:23.055Z,1013.13
2017-11-18T08:08:23.484Z,1013.15
2017-11-18T08:09:23.907Z,1013.19
2017-11-18T08:10:24.342Z,1013.09
2017-11-18T08:11:24.739Z,1013.14
2017-11-18T08:12:25.169Z,1013.10
2017-11-18T08:13:25.597Z,1013.10
2017-11-18T08:14:26.051Z,1013.10
2017-11-18T08:15:26.436Z,1013.07
2017-11-18T08:16:26.871Z,1013.09
2017-11-18T08:17:27.275Z,1013.08
2017-11-18T08:18:27.708Z,1013.07
2017-11-18T08:19:28.132Z,1013.03
2017-11-18T08:20:28.544Z,1013.05
2017-11-18T08:21:28.975Z,1013.00
2017-11-18T08:22:29.411Z,1012.98
2017-11-18T08:23:29.828Z,1012.98
2017-11-18T08:24:30.276Z,1012.99
2017-11-18T08:25:30.681Z,1012.99
2017-11-18T08:26:31.112Z,1012.96
2017-11-18T08:27:31.515Z,1012.97
2017-11-18T08:28:31.939Z,1012.84
2017-11-18T08:29:32.462Z,1012.82
2017-11-18T08:30:32.770Z,1012.79
2017-11-18T08:31:33.249Z,1012.81
2017-11-18T08:32:33.639Z,1012.78
2017-11-18T08:33:34.037Z,1012.73
2017-11-18T08:34:34.479Z,1012.67
2017-11-18T08:35:34.884Z,1012.71
2017-11-18T08:36:35.307Z,1012.70
2017-11-18T08:37:35.746Z,1012.66
2017-11-18T08:38:36.176Z,1012.61
2017-11-18T08:39:36.610Z,1012.63
2017-11-18T08:40:37.012Z,1012.66
2017-11-18T08:41:37.421Z,1012.56
2017-11-18T08:42:37.883Z,1012.61
2017-11-18T08:43:38.304Z,1012.61
2017-11-18T08:44:38.688Z,1012.68
2017-11-18T08:45:39.133Z,1012.67
2017-11-18T08:46:39.560Z,1012.56
2017-11-18T08:47:39.958Z,1012.62
2017-11-18T08:48:40.395Z,1012.60
2017-11-18T08:49:40.826Z,1012.67
2017-11-18T08:50:41.253Z,1012.67
2017-11-18T08:51:41.654Z,1012.61
2017-11-18T08:52:42.074Z,1012.59
2017-11-18T08:53:42.511Z,1012.57
2017-11-18T08:54:42.938Z,1012.62
2017-11-18T08:55:43.344Z,1012.50
2017-11-18T08:56:43.793Z,1012.59
2017-11-18T08:57:44.186Z,1012.55
2017-11-18T08:58:44.609Z,1012.59
2017-11-18T08:59:45.030Z,1012.49
2017-11-18T09:00:45.455Z,1012.51
2017-11-18T09:01:45.920Z,1012.49
2017-11-18T09:02:46.303Z,1012.45
2017-11-18T09:03:46.724Z,1012.45
2017-11-18T09:04:47.145Z,1012.48
2017-11-18T09:05:47.607Z,1012.43
2017-11-18T09:06:47.999Z,1012.42
2017-11-18T09:07:48.415Z,1012.37
2017-11-18T09:08:48.852Z,1012.33
2017-11-18T09:09:49.260Z,1012.33
2017-11-18T09:10:49.685Z,1012.31
2017-11-18T09:11:50.109Z,1012.35
2017-11-18T09:12:50.531Z,1012.34
2017-11-18T09:13:50.953Z,1012.29
2017-11-18T09:14:51.373Z,1012.29
2017-11-18T09:15:51.799Z,1012.31
2017-11-18T09:16:52.219Z,1012.30
2017-11-18T09:17:52.646Z,1012.27
2017-11-18T09:18:53.090Z,1012.29
2017-11-18T09:19:53.540Z,1012.23
2017-11-18T09:20:53.935Z,1012.21
2017-11-18T09:21:54.367Z,1012.20
2017-11-18T09:22:54.760Z,1012.19
2017-11-18T09:23:55.208Z,1012.17
2017-11-18T09:24:55.607Z,1012.11
2017-11-18T09:25:56.043Z,1012.10
2017-11-18T09:26:56.458Z,1012.09
2017-11-18T09:27:56.892Z,1012.04
2017-11-18T09:28:57.331Z,1012.01
2017-11-18T09:29:57.736Z,1012.02
2017-11-18T09:30:58.168Z,1011.99
2017-11-18T09:31:58.572Z,1011.98
2017-11-18T09:32:58.992Z,1011.95
2017-11-18T09:33:59.484Z,1011.98
2017-11-18T09:34:59.848Z,1011.97
2017-11-18T09:36:00.264Z,1011.95
2017-11-18T09:37:00.733Z,1011.98
2017-11-18T09:38:01.111Z,1011.98
2017-11-18T09:39:01.532Z,1011.93
2017-11-18T09:40:01.954Z,1011.89
2017-11-18T09:41:02.379Z,1011.85
2017-11-18T09:42:02.801Z,1011.86
2017-11-18T09:43:03.224Z,1011.82
2017-11-18T09:44:03.646Z,1011.85
2017-11-18T09:45:04.075Z,1011.86
2017-11-18T09:46:04.494Z,1011.79
2017-11-18T09:47:04.918Z,1011.80
2017-11-18T09:48:05.340Z,1011.76
2017-11-18T09:49:05.765Z,1011.74
2017-11-18T09:50:06.191Z,1011.72
2017-11-18T09:51:06.640Z,1011.68
2017-11-18T09:52:07.043Z,1011.67
2017-11-18T09:53:07.458Z,1011.66
2017-11-18T09:54:07.882Z,1011.71
2017-11-18T09:55:08.307Z,1011.66
2017-11-18T09:56:08.728Z,1011.65
2017-11-18T09:57:09.153Z,1011.68
2017-11-18T09:58:09.574Z,1011.65
2017-11-18T09:59:09.998Z,1011.68
2017-11-18T10:00:10.420Z,1011.56
2017-11-18T10:01:10.844Z,1011.59
2017-11-18T10:02:11.269Z,1011.55
2017-11-18T10:03:11.689Z,1011.51
2017-11-18T10:04:12.120Z,1011.43
2017-11-18T10:05:13.238Z,1011.44
2017-11-18T10:06:12.987Z,1011.45
2017-11-18T10:07:13.385Z,1011.48
2017-11-18T10:08:13.806Z,1011.41
2017-11-18T10:09:14.231Z,1011.38
2017-11-18T10:10:14.655Z,1011.47
2017-11-18T10:11:15.076Z,1011.37
2017-11-18T10:12:15.500Z,1011.33
2017-11-18T10:13:15.927Z,1011.33
2017-11-18T10:14:16.350Z,1011.29
2017-11-18T10:15:16.771Z,1011.31
2017-11-18T10:16:17.194Z,1011.25
2017-11-18T10:17:17.618Z,1011.23
2017-11-18T10:18:18.041Z,1011.25
2017-11-18T10:19:18.528Z,1011.25
2017-11-18T10:20:18.928Z,1011.21
2017-11-18T10:21:19.330Z,1011.21
2017-11-18T10:22:19.740Z,1011.23
2017-11-18T10:23:20.159Z,1011.08
2017-11-18T10:24:20.581Z,1011.13
2017-11-18T10:25:21.007Z,1011.10
2017-11-18T10:26:21.444Z,1011.15
2017-11-18T10:27:21.856Z,1011.02
2017-11-18T10:28:22.275Z,1010.96
2017-11-18T10:29:22.700Z,1011.04
2017-11-18T10:30:23.122Z,1011.01
2017-11-18T10:31:23.556Z,1010.97
2017-11-18T10:32:23.969Z,1010.92
2017-11-18T10:33:24.399Z,1010.91
2017-11-18T10:34:24.849Z,1010.85
2017-11-18T10:35:25.237Z,1010.86
2017-11-18T10:36:25.677Z,1010.85
2017-11-18T10:37:26.088Z,1010.77
2017-11-18T10:38:26.508Z,1010.77
2017-11-18T10:39:26.934Z,1010.71
2017-11-18T10:40:27.352Z,1010.72
2017-11-18T10:41:27.777Z,1010.64
2017-11-18T10:42:28.213Z,1010.61
2017-11-18T10:43:28.628Z,1010.67
2017-11-18T10:44:29.053Z,1010.63
2017-11-18T10:45:29.473Z,1010.57
2017-11-18T10:46:29.899Z,1010.54
2017-11-18T10:47:30.342Z,1010.56
2017-11-18T10:48:30.746Z,1010.59
2017-11-18T10:49:31.183Z,1010.56
2017-11-18T10:50:31.588Z,1010.51
2017-11-18T10:51:32.008Z,1010.48
2017-11-18T10:52:32.435Z,1010.57
2017-11-18T10:53:32.864Z,1010.61
2017-11-18T10:54:33.289Z,1010.54
2017-11-18T10:55:33.699Z,1010.42
2017-11-18T10:56:34.125Z,1010.44
2017-11-18T10:57:34.547Z,1010.42
2017-11-18T10:58:34.971Z,1010.37
2017-11-18T10:59:35.395Z,1010.36
2017-11-18T11:00:35.820Z,1010.43
2017-11-18T11:01:36.244Z,1010.33
2017-11-18T11:02:36.665Z,1010.37
2017-11-18T11:03:37.089Z,1010.29
2017-11-18T11:04:37.507Z,1010.36
2017-11-18T11:05:37.941Z,1010.26
2017-11-18T11:06:38.356Z,1010.30
2017-11-18T11:07:38.781Z,1010.26
2017-11-18T11:08:39.206Z,1010.30
2017-11-18T11:09:39.626Z,1010.27
2017-11-18T11:10:40.052Z,1010.15
2017-11-18T11:11:40.472Z,1010.18
2017-11-18T11:12:40.897Z,1010.08
2017-11-18T11:13:41.320Z,1010.09
2017-11-18T11:14:41.748Z,1010.10
2017-11-18T11:15:42.166Z,1010.06
2017-11-18T11:16:42.592Z,1010.06
2017-11-18T11:17:43.027Z,1010.08
2017-11-18T11:18:43.433Z,1009.97
2017-11-18T11:19:43.857Z,1009.97
2017-11-18T11:20:44.278Z,1009.96
2017-11-18T11:21:44.712Z,1009.96
2017-11-18T11:22:45.125Z,1009.94
2017-11-18T11:23:45.548Z,1009.90
2017-11-18T11:24:45.971Z,1009.85
2017-11-18T11:25:46.395Z,1009.90
2017-11-18T11:26:46.821Z,1009.86
2017-11-18T11:27:47.242Z,1009.87
2017-11-18T11:28:47.666Z,1009.79
2017-11-18T11:29:48.088Z,1009.82
2017-11-18T11:30:48.511Z,1009.78
2017-11-18T11:31:48.942Z,1009.81
2017-11-18T11:32:49.370Z,1009.63
2017-11-18T11:33:49.781Z,1009.63
2017-11-18T11:34:50.205Z,1009.63
2017-11-18T11:35:50.627Z,1009.54
2017-11-18T11:36:51.049Z,1009.56
2017-11-18T11:37:51.474Z,1009.51
2017-11-18T11:38:51.899Z,1009.43
2017-11-18T11:39:52.324Z,1009.39
2017-11-18T11:40:52.740Z,1009.41
2017-11-18T11:41:53.173Z,1009.38
2017-11-18T11:42:53.590Z,1009.40
2017-11-18T11:43:54.025Z,1009.35
2017-11-18T11:44:54.437Z,1009.34
2017-11-18T11:45:54.861Z,1009.27
2017-11-18T11:46:55.282Z,1009.25
2017-11-18T11:47:55.713Z,1009.18
2017-11-18T11:48:56.131Z,1009.14
2017-11-18T11:49:56.556Z,1009.05
2017-11-18T11:50:56.976Z,1009.12
2017-11-18T11:51:57.402Z,1008.99
2017-11-18T11:52:57.822Z,1009.04
2017-11-18T11:53:58.245Z,1008.97
2017-11-18T11:54:58.673Z,1008.94
2017-11-18T11:55:59.093Z,1008.98
2017-11-18T11:56:59.518Z,1008.90
2017-11-18T11:57:59.945Z,1008.89
2017-11-18T11:59:00.376Z,1008.86
2017-11-18T12:00:00.787Z,1008.79
2017-11-18T12:01:01.213Z,1008.77
2017-11-18T12:02:01.639Z,1008.83
2017-11-18T12:03:02.067Z,1008.72
2017-11-18T12:04:02.486Z,1008.71
2017-11-18T12:05:02.924Z,1008.67
2017-11-18T12:06:03.330Z,1008.67
2017-11-18T12:07:03.763Z,1008.77
2017-11-18T12:08:04.178Z,1008.70
2017-11-18T12:09:04.599Z,1008.70
2017-11-18T12:10:05.027Z,1008.59
2017-11-18T12:11:05.468Z,1008.53
2017-11-18T12:12:05.873Z,1008.51